createdAt,value
2022-10-16T00:00:38.332Z,43.58
2022-10-16T00:01:40.274Z,43.67
2022-10-16T00:02:42.107Z,43.67
2022-10-16T00:03:43.780Z,43.69
2022-10-16T00:04:45.606Z,43.72
2022-10-16T00:05:47.475Z,43.71
2022-10-16T00:06:49.315Z,43.73
2022-10-16T00:07:51.143Z,43.70
2022-10-16T00:08:52.928Z,43.70
2022-10-16T00:09:54.754Z,43.67
2022-10-16T00:10:56.614Z,43.69
2022-10-16T00:11:58.449Z,43.65
2022-10-16T00:13:00.261Z,43.58
2022-10-16T00:14:02.083Z,43.65
2022-10-16T00:15:03.912Z,43.73
2022-10-16T00:16:05.873Z,43.79
2022-10-16T00:17:07.824Z,43.80
2022-10-16T00:18:09.643Z,43.79
2022-10-16T00:19:11.374Z,43.80
2022-10-16T00:20:13.398Z,43.83
2022-10-16T00:21:15.193Z,43.88
2022-10-16T00:22:16.936Z,43.85
2022-10-16T00:23:18.756Z,43.87
2022-10-16T00:24:20.598Z,43.89
2022-10-16T00:25:22.438Z,43.91
2022-10-16T00:26:24.294Z,44.04
2022-10-16T00:27:26.115Z,44.04
2022-10-16T00:28:27.973Z,44.01
2022-10-16T00:29:29.773Z,43.97
2022-10-16T00:30:31.810Z,44.03
2022-10-16T00:31:33.671Z,44.02
2022-10-16T00:32:35.510Z,43.96
2022-10-16T00:33:37.294Z,43.88
2022-10-16T00:34:39.100Z,43.91
2022-10-16T00:35:40.899Z,43.89
2022-10-16T00:36:42.748Z,43.99
2022-10-16T00:37:44.550Z,43.98
2022-10-16T00:38:46.339Z,43.98
2022-10-16T00:39:48.241Z,44.00
2022-10-16T00:40:50.048Z,44.04
2022-10-16T00:41:51.798Z,44.08
2022-10-16T00:42:53.605Z,44.09
2022-10-16T00:43:55.413Z,44.09
2022-10-16T00:44:57.213Z,44.01
2022-10-16T00:45:59.032Z,44.05
2022-10-16T00:47:00.870Z,44.09
2022-10-16T00:48:02.696Z,44.12
2022-10-16T00:49:04.475Z,44.22
2022-10-16T00:50:06.781Z,44.32
2022-10-16T00:51:08.572Z,44.34
2022-10-16T00:52:10.399Z,44.39
2022-10-16T00:53:12.218Z,44.61
2022-10-16T00:54:14.010Z,44.61
2022-10-16T00:55:15.797Z,44.67
2022-10-16T00:56:17.697Z,44.76
2022-10-16T00:57:20.748Z,44.81
2022-10-16T00:58:22.668Z,44.85
2022-10-16T00:59:24.444Z,44.82
2022-10-16T01:00:26.236Z,44.81
2022-10-16T01:01:28.104Z,44.78
2022-10-16T01:02:30.108Z,44.71
2022-10-16T01:03:31.976Z,44.72
2022-10-16T01:04:33.775Z,44.75
2022-10-16T01:05:35.587Z,44.69
2022-10-16T01:06:37.414Z,44.62
2022-10-16T01:07:39.243Z,44.61
2022-10-16T01:08:41.039Z,44.57
2022-10-16T01:09:42.838Z,44.60
2022-10-16T01:10:45.041Z,44.62
2022-10-16T01:11:46.838Z,44.63
2022-10-16T01:12:48.683Z,44.59
2022-10-16T01:13:50.485Z,44.56
2022-10-16T01:14:52.180Z,44.52
2022-10-16T01:15:54.001Z,44.45
2022-10-16T01:16:55.884Z,44.43
2022-10-16T01:17:57.740Z,44.38
2022-10-16T01:18:59.625Z,44.45
2022-10-16T01:20:01.333Z,44.60
2022-10-16T01:21:03.138Z,44.68
2022-10-16T01:22:04.825Z,44.68
2022-10-16T01:23:06.686Z,44.65
2022-10-16T01:24:08.504Z,44.73
2022-10-16T01:25:10.288Z,44.75
2022-10-16T01:26:12.094Z,44.75
2022-10-16T01:27:13.883Z,44.73
2022-10-16T01:28:15.719Z,44.71
2022-10-16T01:29:17.531Z,44.63
2022-10-16T01:30:19.325Z,44.58
2022-10-16T01:31:21.116Z,44.58
2022-10-16T01:32:22.912Z,44.59
2022-10-16T01:33:24.780Z,44.71
2022-10-16T01:34:26.597Z,44.74
2022-10-16T01:35:28.295Z,44.81
2022-10-16T01:36:30.094Z,44.80
2022-10-16T01:37:31.877Z,44.79
2022-10-16T01:38:33.723Z,44.79
2022-10-16T01:39:35.442Z,44.74
2022-10-16T01:40:37.227Z,44.69
2022-10-16T01:41:38.927Z,44.59
2022-10-16T01:42:40.723Z,44.69
2022-10-16T01:43:42.583Z,44.75
2022-10-16T01:44:44.413Z,44.85
2022-10-16T01:45:46.232Z,44.85
2022-10-16T01:46:48.054Z,44.84
2022-10-16T01:47:49.868Z,44.81
2022-10-16T01:48:51.734Z,44.79
2022-10-16T01:49:53.593Z,44.81
2022-10-16T01:50:55.419Z,44.83
2022-10-16T01:51:57.284Z,44.87
2022-10-16T01:52:59.068Z,44.91
2022-10-16T01:54:00.935Z,44.96
2022-10-16T01:55:02.780Z,45.02
2022-10-16T01:56:04.804Z,45.01
2022-10-16T01:57:06.640Z,45.03
2022-10-16T01:58:08.468Z,45.01
2022-10-16T01:59:10.319Z,44.96
2022-10-16T02:00:12.762Z,45.06
2022-10-16T02:02:16.729Z,45.26
2022-10-16T02:03:18.556Z,45.33
2022-10-16T02:04:20.416Z,45.25
2022-10-16T02:05:22.268Z,45.19
2022-10-16T02:06:24.101Z,45.15
2022-10-16T02:07:25.945Z,45.09
2022-10-16T02:08:27.769Z,45.09
2022-10-16T02:09:29.624Z,45.10
2022-10-16T02:10:31.457Z,45.15
2022-10-16T02:11:33.307Z,45.12
2022-10-16T02:12:35.109Z,45.19
2022-10-16T02:13:36.932Z,45.27
2022-10-16T02:14:38.781Z,45.32
2022-10-16T02:15:40.619Z,45.36
2022-10-16T02:16:42.552Z,45.49
2022-10-16T02:17:44.388Z,45.42
2022-10-16T02:18:46.231Z,45.41
2022-10-16T02:19:48.096Z,45.34
2022-10-16T02:20:49.949Z,45.31
2022-10-16T02:21:51.774Z,45.30
2022-10-16T02:22:53.598Z,45.41
2022-10-16T02:23:55.445Z,45.47
2022-10-16T02:24:57.307Z,45.52
2022-10-16T02:25:59.131Z,45.61
2022-10-16T02:27:00.953Z,45.55
2022-10-16T02:28:02.785Z,45.52
2022-10-16T02:29:04.626Z,45.45
2022-10-16T02:30:07.098Z,45.43
2022-10-16T02:31:08.916Z,45.39
2022-10-16T02:32:10.733Z,45.41
2022-10-16T02:33:12.571Z,45.49
2022-10-16T02:34:14.390Z,45.52
2022-10-16T02:35:16.266Z,45.53
2022-10-16T02:36:18.166Z,45.55
2022-10-16T02:37:19.998Z,45.59
2022-10-16T02:38:21.787Z,45.56
2022-10-16T02:39:23.534Z,45.53
2022-10-16T02:40:26.236Z,45.55
2022-10-16T02:41:28.037Z,45.61
2022-10-16T02:42:29.839Z,45.82
2022-10-16T02:43:31.633Z,45.97
2022-10-16T02:44:33.381Z,46.01
2022-10-16T02:45:35.248Z,46.00
2022-10-16T02:46:37.075Z,45.89
2022-10-16T02:47:38.903Z,46.06
2022-10-16T02:48:40.742Z,46.05
2022-10-16T02:49:42.577Z,46.00
2022-10-16T02:50:44.458Z,45.62
2022-10-16T02:51:46.305Z,45.62
2022-10-16T02:52:48.131Z,45.80
2022-10-16T02:53:49.971Z,45.74
2022-10-16T02:54:51.799Z,45.67
2022-10-16T02:55:53.674Z,45.72
2022-10-16T02:56:55.691Z,45.69
2022-10-16T02:57:57.535Z,45.67
2022-10-16T02:58:59.362Z,45.71
2022-10-16T03:00:01.199Z,45.72
2022-10-16T03:01:03.100Z,45.65
2022-10-16T03:02:04.996Z,45.65
2022-10-16T03:03:06.813Z,45.67
2022-10-16T03:04:08.636Z,45.83
2022-10-16T03:05:10.477Z,45.90
2022-10-16T03:06:12.633Z,45.87
2022-10-16T03:07:14.493Z,45.91
2022-10-16T03:08:16.318Z,45.89
2022-10-16T03:09:18.157Z,45.82
2022-10-16T03:10:20.100Z,45.79
2022-10-16T03:11:21.985Z,45.87
2022-10-16T03:12:23.815Z,45.91
2022-10-16T03:13:25.649Z,45.99
2022-10-16T03:15:30.321Z,45.97
2022-10-16T03:16:32.280Z,45.93
2022-10-16T03:17:34.127Z,45.86
2022-10-16T03:18:35.959Z,45.95
2022-10-16T03:19:37.780Z,45.88
2022-10-16T03:20:39.605Z,45.90
2022-10-16T03:21:41.473Z,45.91
2022-10-16T03:22:43.338Z,46.04
2022-10-16T03:23:45.160Z,46.09
2022-10-16T03:24:47.000Z,46.05
2022-10-16T03:25:48.848Z,46.06
2022-10-16T03:26:50.712Z,46.10
2022-10-16T03:27:52.540Z,46.03
2022-10-16T03:28:54.458Z,46.10
2022-10-16T03:29:56.277Z,46.12
2022-10-16T03:30:58.121Z,46.07
2022-10-16T03:32:00.003Z,46.04
2022-10-16T03:33:01.832Z,46.07
2022-10-16T03:34:03.640Z,46.11
2022-10-16T03:35:05.477Z,46.15
2022-10-16T03:36:07.522Z,46.13
2022-10-16T03:37:09.374Z,46.13
2022-10-16T03:38:11.270Z,46.15
2022-10-16T03:39:13.116Z,46.14
2022-10-16T03:40:15.257Z,46.21
2022-10-16T03:41:17.085Z,46.17
2022-10-16T03:42:18.939Z,46.21
2022-10-16T03:43:20.779Z,46.24
2022-10-16T03:44:22.624Z,46.36
2022-10-16T03:45:24.437Z,46.35
2022-10-16T03:46:26.273Z,46.38
2022-10-16T03:47:28.368Z,46.47
2022-10-16T03:48:30.678Z,46.49
2022-10-16T03:49:32.485Z,46.54
2022-10-16T03:50:34.321Z,46.59
2022-10-16T03:51:36.148Z,46.61
2022-10-16T03:52:38.033Z,46.62
2022-10-16T03:53:39.882Z,46.67
2022-10-16T03:54:41.723Z,46.74
2022-10-16T03:55:43.542Z,46.66
2022-10-16T03:56:45.380Z,46.65
2022-10-16T03:57:47.257Z,46.75
2022-10-16T03:58:49.100Z,46.81
2022-10-16T03:59:50.898Z,46.83
2022-10-16T04:00:52.785Z,46.86
2022-10-16T04:01:54.563Z,46.91
2022-10-16T04:02:56.421Z,46.90
2022-10-16T04:03:58.229Z,46.86
2022-10-16T04:05:00.041Z,46.98
2022-10-16T04:06:01.865Z,47.22
2022-10-16T04:07:03.697Z,47.29
2022-10-16T04:08:05.546Z,47.29
2022-10-16T04:09:07.396Z,47.33
2022-10-16T04:10:09.332Z,47.33
2022-10-16T04:11:11.142Z,47.33
2022-10-16T04:12:12.960Z,47.35
2022-10-16T04:13:14.851Z,47.28
2022-10-16T04:14:16.534Z,47.25
2022-10-16T04:15:18.359Z,47.21
2022-10-16T04:16:20.174Z,47.20
2022-10-16T04:17:21.993Z,47.17
2022-10-16T04:18:23.859Z,47.21
2022-10-16T04:19:25.683Z,47.22
2022-10-16T04:20:27.515Z,47.24
2022-10-16T04:21:29.333Z,47.24
2022-10-16T04:22:31.074Z,47.16
2022-10-16T04:23:32.910Z,47.05
2022-10-16T04:24:34.751Z,47.05
2022-10-16T04:25:36.587Z,47.04
2022-10-16T04:26:38.396Z,47.01
2022-10-16T04:27:42.288Z,46.96
2022-10-16T04:28:43.816Z,46.97
2022-10-16T04:29:45.615Z,47.04
2022-10-16T04:30:47.445Z,47.24
2022-10-16T04:31:49.310Z,47.26
2022-10-16T04:32:51.197Z,47.26
2022-10-16T04:33:53.183Z,47.37
2022-10-16T04:34:55.003Z,47.36
2022-10-16T04:35:56.816Z,47.40
2022-10-16T04:36:58.630Z,47.32
2022-10-16T04:38:00.344Z,47.31
2022-10-16T04:39:02.202Z,47.28
2022-10-16T04:40:04.110Z,47.23
2022-10-16T04:41:05.909Z,47.24
2022-10-16T04:42:07.732Z,47.31
2022-10-16T04:43:09.547Z,47.32
2022-10-16T04:44:11.418Z,47.36
2022-10-16T04:45:16.299Z,47.34
2022-10-16T04:46:17.190Z,47.38
2022-10-16T04:47:19.002Z,47.36
2022-10-16T04:48:20.835Z,47.50
2022-10-16T04:49:22.725Z,47.61
2022-10-16T04:50:24.552Z,47.63
2022-10-16T04:51:26.366Z,47.67
2022-10-16T04:52:28.246Z,47.84
2022-10-16T04:53:30.065Z,47.84
2022-10-16T04:54:32.051Z,47.83
2022-10-16T04:55:33.947Z,47.81
2022-10-16T04:56:37.057Z,47.89
2022-10-16T04:57:40.783Z,47.96
2022-10-16T04:58:42.587Z,48.02
2022-10-16T04:59:44.426Z,48.04
2022-10-16T05:00:46.237Z,48.07
2022-10-16T05:01:50.648Z,48.11
2022-10-16T05:02:52.618Z,48.06
2022-10-16T05:03:54.645Z,48.12
2022-10-16T05:04:56.476Z,48.16
2022-10-16T05:05:58.264Z,48.20
2022-10-16T05:07:00.074Z,48.22
2022-10-16T05:08:01.872Z,48.25
2022-10-16T05:09:03.673Z,48.29
2022-10-16T05:10:05.712Z,48.30
2022-10-16T05:11:07.753Z,48.29
2022-10-16T05:12:09.613Z,48.27
2022-10-16T05:13:11.505Z,48.20
2022-10-16T05:14:13.499Z,48.22
2022-10-16T05:15:15.322Z,48.22
2022-10-16T05:16:17.440Z,48.19
2022-10-16T05:17:19.248Z,48.15
2022-10-16T05:18:21.051Z,48.23
2022-10-16T05:19:27.384Z,48.25
2022-10-16T05:20:27.335Z,48.27
2022-10-16T05:21:29.253Z,48.22
2022-10-16T05:22:30.974Z,48.32
2022-10-16T05:23:32.759Z,48.36
2022-10-16T05:24:34.724Z,48.42
2022-10-16T05:25:36.784Z,48.45
2022-10-16T05:26:40.377Z,48.47
2022-10-16T05:27:43.237Z,48.40
2022-10-16T05:28:46.462Z,48.36
2022-10-16T05:29:48.944Z,48.37
2022-10-16T05:30:51.266Z,48.33
2022-10-16T05:31:53.066Z,48.30
2022-10-16T05:32:54.878Z,48.26
2022-10-16T05:33:56.671Z,48.20
2022-10-16T05:34:58.467Z,48.22
2022-10-16T05:36:00.309Z,48.22
2022-10-16T05:37:02.115Z,48.21
2022-10-16T05:38:04.082Z,48.16
2022-10-16T05:39:05.860Z,48.10
2022-10-16T05:40:07.771Z,48.04
2022-10-16T05:41:09.626Z,48.05
2022-10-16T05:42:11.506Z,48.11
2022-10-16T05:43:13.312Z,48.10
2022-10-16T05:44:15.179Z,48.06
2022-10-16T05:45:17.005Z,48.08
2022-10-16T05:46:18.833Z,48.11
2022-10-16T05:47:20.637Z,47.93
2022-10-16T05:48:22.665Z,47.89
2022-10-16T05:49:24.478Z,47.95
2022-10-16T05:50:27.382Z,47.90
2022-10-16T05:51:29.688Z,47.89
2022-10-16T05:52:31.506Z,47.88
2022-10-16T05:53:33.647Z,47.94
2022-10-16T05:54:37.573Z,47.83
2022-10-16T05:55:42.347Z,47.76
2022-10-16T05:56:47.255Z,47.89
2022-10-16T05:57:50.137Z,47.99
2022-10-16T05:58:53.308Z,48.05
2022-10-16T05:59:57.495Z,47.99
2022-10-16T06:01:01.004Z,48.05
2022-10-16T06:02:04.109Z,48.22
2022-10-16T06:03:05.795Z,48.17
2022-10-16T06:04:07.664Z,48.15
2022-10-16T06:05:09.544Z,48.28
2022-10-16T06:06:12.508Z,48.35
2022-10-16T06:07:14.619Z,48.27
2022-10-16T06:08:16.428Z,48.11
2022-10-16T06:09:18.215Z,48.12
2022-10-16T06:10:20.196Z,48.04
2022-10-16T06:11:22.411Z,48.07
2022-10-16T06:12:24.433Z,47.99
2022-10-16T06:13:26.268Z,47.96
2022-10-16T06:14:28.070Z,47.98
2022-10-16T06:15:29.871Z,48.05
2022-10-16T06:16:31.670Z,47.97
2022-10-16T06:17:33.510Z,47.93
2022-10-16T06:18:35.323Z,47.87
2022-10-16T06:19:37.110Z,47.85
2022-10-16T06:20:39.049Z,47.79
2022-10-16T06:21:40.853Z,47.78
2022-10-16T06:22:42.611Z,47.77
2022-10-16T06:24:46.120Z,47.57
2022-10-16T06:25:47.909Z,47.57
2022-10-16T06:26:49.719Z,47.49
2022-10-16T06:27:51.552Z,47.55
2022-10-16T06:28:53.399Z,47.66
2022-10-16T06:29:55.156Z,47.79
2022-10-16T06:30:56.946Z,47.84
2022-10-16T06:31:58.749Z,47.75
2022-10-16T06:33:00.770Z,47.76
2022-10-16T06:34:02.580Z,47.80
2022-10-16T06:35:04.368Z,47.82
2022-10-16T06:36:06.472Z,47.75
2022-10-16T06:37:08.169Z,47.66
2022-10-16T06:38:09.997Z,47.67
2022-10-16T06:39:11.997Z,47.67
2022-10-16T06:40:14.751Z,47.56
2022-10-16T06:41:16.828Z,47.63
2022-10-16T06:42:18.806Z,47.67
2022-10-16T06:43:20.691Z,47.61
2022-10-16T06:44:22.439Z,47.60
2022-10-16T06:45:24.446Z,47.41
2022-10-16T06:46:26.345Z,47.42
2022-10-16T06:47:28.187Z,47.52
2022-10-16T06:48:30.023Z,47.53
2022-10-16T06:49:31.832Z,47.54
2022-10-16T06:50:34.142Z,47.64
2022-10-16T06:51:37.988Z,47.67
2022-10-16T06:52:40.604Z,47.77
2022-10-16T06:53:54.860Z,47.81
2022-10-16T06:54:46.014Z,47.73
2022-10-16T06:55:47.825Z,47.67
2022-10-16T06:56:49.614Z,47.73
2022-10-16T06:57:51.429Z,47.73
2022-10-16T06:58:53.259Z,47.67
2022-10-16T06:59:55.673Z,47.55
2022-10-16T07:00:58.222Z,47.51
2022-10-16T07:02:00.590Z,47.53
2022-10-16T07:03:02.398Z,47.45
2022-10-16T07:04:04.683Z,47.40
2022-10-16T07:05:06.516Z,47.40
2022-10-16T07:06:08.900Z,47.40
2022-10-16T07:07:10.946Z,47.51
2022-10-16T07:08:12.753Z,47.55
2022-10-16T07:09:14.625Z,47.69
2022-10-16T07:10:16.431Z,47.77
2022-10-16T07:11:18.257Z,47.80
2022-10-16T07:12:20.557Z,47.85
2022-10-16T07:13:22.393Z,47.83
2022-10-16T07:14:24.274Z,47.80
2022-10-16T07:15:26.552Z,47.81
2022-10-16T07:16:28.806Z,47.80
2022-10-16T07:17:31.116Z,47.84
2022-10-16T07:18:32.844Z,47.84
2022-10-16T07:19:34.739Z,47.72
2022-10-16T07:20:37.047Z,47.75
2022-10-16T07:21:38.899Z,47.72
2022-10-16T07:22:40.732Z,47.61
2022-10-16T07:23:42.558Z,47.70
2022-10-16T07:24:46.235Z,47.79
2022-10-16T07:25:47.956Z,47.72
2022-10-16T07:26:50.492Z,47.60
2022-10-16T07:27:52.631Z,47.53
2022-10-16T07:28:54.627Z,47.52
2022-10-16T07:29:56.599Z,47.58
2022-10-16T07:30:58.593Z,47.57
2022-10-16T07:32:00.467Z,47.47
2022-10-16T07:33:03.437Z,47.45
2022-10-16T07:34:07.422Z,47.44
2022-10-16T07:35:11.318Z,47.37
2022-10-16T07:36:16.759Z,47.44
2022-10-16T07:37:19.819Z,47.47
2022-10-16T07:38:22.510Z,47.36
2022-10-16T07:39:24.735Z,47.42
2022-10-16T07:40:28.838Z,47.49
2022-10-16T07:41:30.839Z,47.44
2022-10-16T07:43:54.160Z,47.42
2022-10-16T07:44:56.627Z,47.25
2022-10-16T07:46:02.502Z,47.22
2022-10-16T07:47:03.819Z,47.19
2022-10-16T07:48:05.650Z,47.19
2022-10-16T07:49:07.476Z,47.16
2022-10-16T07:50:09.612Z,47.14
2022-10-16T07:51:12.077Z,47.14
2022-10-16T07:52:13.843Z,47.13
2022-10-16T07:53:15.672Z,47.10
2022-10-16T07:54:17.549Z,47.11
2022-10-16T07:55:19.381Z,47.04
2022-10-16T07:56:22.184Z,47.01
2022-10-16T07:57:25.020Z,47.00
2022-10-16T07:58:27.104Z,47.04
2022-10-16T07:59:28.929Z,47.00
2022-10-16T08:00:30.763Z,46.83
2022-10-16T08:01:32.801Z,46.79
2022-10-16T08:02:40.207Z,46.91
2022-10-16T08:03:42.672Z,46.92
2022-10-16T08:04:44.521Z,46.93
2022-10-16T08:05:50.004Z,46.82
2022-10-16T08:06:52.832Z,46.76
2022-10-16T08:07:56.720Z,46.78
2022-10-16T08:08:58.569Z,46.82
2022-10-16T08:10:00.646Z,46.91
2022-10-16T08:11:04.038Z,47.01
2022-10-16T08:12:05.929Z,47.09
2022-10-16T08:14:10.038Z,47.05
2022-10-16T08:15:12.120Z,46.92
2022-10-16T08:16:14.735Z,46.73
2022-10-16T08:17:16.921Z,46.69
2022-10-16T08:18:18.852Z,46.77
2022-10-16T08:19:21.354Z,46.74
2022-10-16T08:20:24.000Z,46.61
2022-10-16T08:21:27.306Z,46.55
2022-10-16T08:22:32.035Z,46.47
2022-10-16T08:23:35.928Z,46.41
2022-10-16T08:24:37.797Z,46.34
2022-10-16T08:25:39.605Z,46.35
2022-10-16T08:26:42.039Z,46.26
2022-10-16T08:27:44.358Z,46.38
2022-10-16T08:28:46.447Z,46.42
2022-10-16T08:29:49.299Z,46.43
2022-10-16T08:30:51.929Z,46.49
2022-10-16T08:31:54.605Z,46.44
2022-10-16T08:32:57.372Z,46.44
2022-10-16T08:34:00.399Z,46.43
2022-10-16T08:35:02.282Z,46.38
2022-10-16T08:36:04.234Z,46.37
2022-10-16T08:37:06.058Z,46.15
2022-10-16T08:38:07.914Z,46.10
2022-10-16T08:39:09.887Z,45.99
2022-10-16T08:40:12.581Z,45.94
2022-10-16T08:41:14.479Z,46.01
2022-10-16T08:42:16.297Z,46.07
2022-10-16T08:43:18.161Z,45.99
2022-10-16T08:44:20.192Z,45.92
2022-10-16T08:45:22.234Z,45.88
2022-10-16T08:46:24.081Z,45.83
2022-10-16T08:47:25.906Z,45.76
2022-10-16T08:48:28.114Z,45.79
2022-10-16T08:49:30.097Z,45.71
2022-10-16T08:50:32.153Z,45.53
2022-10-16T08:51:33.985Z,45.51
2022-10-16T08:52:35.816Z,45.50
2022-10-16T08:53:39.307Z,45.56
2022-10-16T08:54:42.054Z,45.51
2022-10-16T08:55:44.590Z,45.50
2022-10-16T08:56:46.820Z,45.51
2022-10-16T08:57:48.652Z,45.40
2022-10-16T08:58:51.950Z,45.38
2022-10-16T08:59:54.365Z,45.42
2022-10-16T09:00:56.640Z,45.32
2022-10-16T09:01:58.605Z,45.21
2022-10-16T09:03:00.447Z,45.12
2022-10-16T09:04:02.302Z,45.12
2022-10-16T09:05:04.204Z,45.26
2022-10-16T09:06:06.147Z,45.35
2022-10-16T09:07:07.988Z,45.33
2022-10-16T09:08:13.162Z,45.26
2022-10-16T09:09:13.509Z,45.14
2022-10-16T09:10:15.439Z,45.02
2022-10-16T09:11:17.285Z,45.11
2022-10-16T09:12:19.117Z,45.08
2022-10-16T09:13:20.949Z,45.03
2022-10-16T09:14:22.878Z,45.06
2022-10-16T09:15:24.862Z,45.04
2022-10-16T09:16:26.882Z,45.07
2022-10-16T09:17:29.067Z,45.18
2022-10-16T09:18:32.801Z,45.23
2022-10-16T09:19:34.752Z,44.94
2022-10-16T09:20:36.794Z,44.71
2022-10-16T09:21:38.617Z,44.80
2022-10-16T09:22:40.319Z,44.86
2022-10-16T09:23:42.138Z,44.88
2022-10-16T09:24:43.979Z,44.87
2022-10-16T09:25:45.791Z,44.87
2022-10-16T09:26:47.591Z,44.63
2022-10-16T09:27:49.405Z,44.63
2022-10-16T09:28:51.238Z,44.53
2022-10-16T09:29:57.406Z,44.47
2022-10-16T09:30:56.708Z,44.60
2022-10-16T09:31:58.518Z,44.55
2022-10-16T09:33:00.324Z,44.42
2022-10-16T09:34:02.143Z,44.44
2022-10-16T09:35:03.877Z,44.40
2022-10-16T09:36:06.010Z,44.40
2022-10-16T09:37:07.852Z,44.27
2022-10-16T09:38:09.686Z,44.29
2022-10-16T09:39:11.507Z,44.36
2022-10-16T09:40:13.854Z,44.47
2022-10-16T09:41:15.673Z,44.47
2022-10-16T09:42:17.502Z,44.42
2022-10-16T09:43:19.291Z,44.32
2022-10-16T09:44:21.105Z,44.15
2022-10-16T09:45:22.844Z,44.04
2022-10-16T09:46:24.653Z,44.08
2022-10-16T09:47:26.831Z,44.04
2022-10-16T09:48:28.751Z,43.99
2022-10-16T09:49:30.561Z,43.90
2022-10-16T09:50:32.395Z,44.00
2022-10-16T09:51:34.275Z,43.84
2022-10-16T09:52:36.096Z,43.74
2022-10-16T09:53:37.919Z,43.71
2022-10-16T09:54:39.722Z,43.79
2022-10-16T09:55:41.555Z,43.74
2022-10-16T09:56:43.380Z,43.90
2022-10-16T09:57:45.169Z,43.91
2022-10-16T09:58:47.385Z,43.96
2022-10-16T09:59:49.181Z,43.90
2022-10-16T10:00:51.377Z,43.93
2022-10-16T10:01:53.181Z,44.04
2022-10-16T10:03:56.684Z,44.06
2022-10-16T10:04:58.523Z,44.00
2022-10-16T10:06:02.141Z,43.94
2022-10-16T10:07:04.088Z,43.78
2022-10-16T10:08:05.871Z,43.68
2022-10-16T10:09:07.684Z,43.45
2022-10-16T10:10:09.793Z,43.52
2022-10-16T10:11:15.978Z,43.65
2022-10-16T10:12:15.305Z,43.80
2022-10-16T10:13:17.141Z,43.67
2022-10-16T10:14:18.943Z,43.81
2022-10-16T10:15:20.758Z,43.90
2022-10-16T10:16:22.618Z,43.96
2022-10-16T10:17:24.439Z,43.69
2022-10-16T10:18:26.252Z,43.69
2022-10-16T10:19:28.110Z,43.71
2022-10-16T10:20:31.474Z,43.59
2022-10-16T10:21:33.310Z,43.42
2022-10-16T10:22:35.159Z,43.37
2022-10-16T10:23:37.134Z,43.34
2022-10-16T10:24:38.928Z,43.47
2022-10-16T10:25:40.731Z,43.47
2022-10-16T10:26:45.309Z,43.51
2022-10-16T10:27:46.207Z,43.60
2022-10-16T10:28:48.059Z,43.53
2022-10-16T10:29:49.932Z,43.43
2022-10-16T10:30:51.728Z,43.45
2022-10-16T10:31:53.566Z,43.41
2022-10-16T10:32:55.379Z,43.50
2022-10-16T10:33:57.187Z,43.63
2022-10-16T10:34:58.971Z,43.64
2022-10-16T10:36:00.672Z,43.55
2022-10-16T10:37:02.515Z,43.21
2022-10-16T10:38:04.334Z,43.13
2022-10-16T10:39:06.137Z,43.12
2022-10-16T10:40:09.152Z,43.09
2022-10-16T10:41:10.852Z,42.93
2022-10-16T10:42:13.848Z,42.84
2022-10-16T10:43:15.708Z,42.83
2022-10-16T10:44:17.316Z,42.89
2022-10-16T10:45:22.094Z,42.94
2022-10-16T10:46:24.273Z,42.99
2022-10-16T10:47:26.391Z,42.81
2022-10-16T10:49:32.649Z,42.84
2022-10-16T10:50:34.534Z,42.90
2022-10-16T10:51:37.281Z,42.80
2022-10-16T10:52:41.270Z,42.69
2022-10-16T10:53:44.434Z,42.60
2022-10-16T10:55:01.447Z,42.52
2022-10-16T10:56:03.719Z,42.56
2022-10-16T10:57:06.602Z,42.65
2022-10-16T10:58:11.341Z,42.71
2022-10-16T10:59:13.183Z,42.80
2022-10-16T11:00:15.099Z,42.93
2022-10-16T11:01:16.972Z,42.98
2022-10-16T11:02:19.253Z,43.09
2022-10-16T11:03:22.957Z,42.89
2022-10-16T11:04:26.240Z,42.77
2022-10-16T11:05:29.135Z,42.62
2022-10-16T11:06:33.610Z,42.60
2022-10-16T11:07:35.539Z,42.54
2022-10-16T11:08:43.090Z,42.51
2022-10-16T11:09:46.261Z,42.58
2022-10-16T11:10:48.102Z,42.53
2022-10-16T11:11:50.787Z,42.50
2022-10-16T11:12:52.615Z,42.51
2022-10-16T11:13:54.467Z,42.44
2022-10-16T11:14:56.265Z,42.41
2022-10-16T11:15:58.075Z,42.49
2022-10-16T11:16:59.790Z,42.55
2022-10-16T11:18:01.580Z,42.64
2022-10-16T11:19:03.318Z,42.62
2022-10-16T11:20:05.128Z,42.67
2022-10-16T11:21:06.925Z,42.67
2022-10-16T11:22:08.735Z,42.62
2022-10-16T11:23:10.523Z,42.62
2022-10-16T11:24:12.413Z,42.64
2022-10-16T11:25:14.163Z,42.70
2022-10-16T11:26:15.996Z,42.67
2022-10-16T11:27:17.682Z,42.74
2022-10-16T11:28:19.486Z,42.77
2022-10-16T11:29:21.301Z,42.58
2022-10-16T11:30:23.108Z,42.55
2022-10-16T11:31:24.922Z,42.64
2022-10-16T11:32:26.645Z,42.66
2022-10-16T11:33:28.474Z,42.76
2022-10-16T11:34:32.885Z,42.72
2022-10-16T11:35:33.963Z,42.80
2022-10-16T11:36:35.784Z,42.82
2022-10-16T11:37:37.618Z,42.82
2022-10-16T11:38:39.447Z,42.75
2022-10-16T11:39:41.301Z,42.71
2022-10-16T11:40:43.226Z,42.81
2022-10-16T11:41:45.065Z,42.82
2022-10-16T11:42:46.928Z,42.81
2022-10-16T11:43:48.742Z,42.95
2022-10-16T11:44:50.601Z,42.91
2022-10-16T11:45:52.429Z,42.88
2022-10-16T11:46:59.400Z,42.87
2022-10-16T11:47:59.589Z,42.96
2022-10-16T11:49:01.711Z,43.01
2022-10-16T11:50:03.621Z,43.00
2022-10-16T11:51:05.421Z,42.91
2022-10-16T11:52:07.278Z,42.87
2022-10-16T11:53:09.154Z,42.92
2022-10-16T11:54:10.984Z,43.01
2022-10-16T11:55:12.767Z,42.97
2022-10-16T11:56:14.900Z,43.05
2022-10-16T11:57:16.734Z,43.05
2022-10-16T11:58:18.557Z,43.17
2022-10-16T11:59:20.389Z,43.17
2022-10-16T12:00:22.247Z,43.15
2022-10-16T12:02:27.100Z,42.90
2022-10-16T12:03:29.189Z,43.00
2022-10-16T12:04:31.089Z,43.15
2022-10-16T12:05:32.976Z,43.21
2022-10-16T12:06:34.805Z,43.14
2022-10-16T12:07:36.627Z,43.07
2022-10-16T12:08:38.367Z,43.16
2022-10-16T12:09:40.183Z,43.18
2022-10-16T12:10:42.060Z,43.10
2022-10-16T12:11:43.909Z,43.04
2022-10-16T12:12:45.767Z,43.03
2022-10-16T12:13:47.597Z,43.02
2022-10-16T12:15:14.596Z,42.94
2022-10-16T12:15:59.129Z,42.82
2022-10-16T12:16:56.749Z,42.89
2022-10-16T12:17:58.585Z,42.91
2022-10-16T12:19:00.410Z,42.96
2022-10-16T12:20:02.232Z,42.99
2022-10-16T12:21:04.209Z,43.02
2022-10-16T12:22:06.035Z,42.97
2022-10-16T12:23:07.860Z,43.01
2022-10-16T12:24:09.677Z,43.05
2022-10-16T12:25:11.508Z,43.11
2022-10-16T12:26:13.511Z,43.20
2022-10-16T12:27:15.247Z,43.14
2022-10-16T12:28:17.064Z,43.07
2022-10-16T12:29:18.900Z,42.94
2022-10-16T12:30:20.753Z,42.85
2022-10-16T12:31:22.607Z,42.94
2022-10-16T12:32:48.757Z,42.96
2022-10-16T12:33:28.064Z,42.88
2022-10-16T12:34:29.899Z,42.89
2022-10-16T12:35:31.740Z,42.88
2022-10-16T12:36:33.621Z,42.82
2022-10-16T12:37:35.464Z,42.79
2022-10-16T12:38:37.302Z,42.77
2022-10-16T12:39:39.131Z,42.85
2022-10-16T12:40:40.970Z,43.10
2022-10-16T12:41:42.714Z,43.10
2022-10-16T12:42:44.556Z,42.70
2022-10-16T12:43:46.399Z,42.73
2022-10-16T12:44:48.224Z,42.73
2022-10-16T12:45:50.034Z,42.74
2022-10-16T12:46:51.990Z,42.79
2022-10-16T12:47:53.835Z,42.81
2022-10-16T12:49:06.664Z,42.60
2022-10-16T12:49:59.312Z,42.52
2022-10-16T12:51:01.130Z,42.42
2022-10-16T12:52:03.004Z,42.49
2022-10-16T12:53:04.871Z,42.45
2022-10-16T12:54:06.709Z,42.51
2022-10-16T12:55:08.544Z,42.60
2022-10-16T12:56:10.389Z,42.55
2022-10-16T12:57:12.249Z,42.38
2022-10-16T12:58:14.111Z,42.51
2022-10-16T12:59:15.959Z,42.62
2022-10-16T13:00:17.815Z,42.67
2022-10-16T13:01:19.620Z,42.73
2022-10-16T13:02:21.502Z,42.77
2022-10-16T13:03:23.345Z,42.77
2022-10-16T13:04:25.178Z,42.46
2022-10-16T13:05:27.066Z,42.15
2022-10-16T13:06:29.070Z,42.49
2022-10-16T13:07:30.931Z,42.46
2022-10-16T13:08:32.787Z,42.28
2022-10-16T13:09:34.591Z,42.42
2022-10-16T13:10:36.435Z,42.50
2022-10-16T13:11:38.267Z,42.45
2022-10-16T13:12:40.020Z,42.51
2022-10-16T13:13:41.894Z,42.31
2022-10-16T13:15:45.448Z,42.19
2022-10-16T13:16:47.295Z,42.29
2022-10-16T13:17:49.128Z,42.23
2022-10-16T13:18:50.992Z,42.20
2022-10-16T13:19:52.816Z,42.33
2022-10-16T13:20:54.743Z,42.25
2022-10-16T13:21:56.557Z,42.14
2022-10-16T13:22:58.437Z,42.05
2022-10-16T13:24:00.270Z,41.98
2022-10-16T13:25:02.085Z,42.01
2022-10-16T13:26:03.918Z,41.93
2022-10-16T13:27:05.773Z,41.98
2022-10-16T13:28:07.653Z,42.08
2022-10-16T13:29:09.506Z,42.06